sensor_id;sensor_type;location;lat;lon;timestamp;P1;durP1;ratioP1;P2;durP2;ratioP2
70213;SDS011;60138;55.808;37.078;2022-12-24T00:00:13;12.70;;;8.95;;
70213;SDS011;60138;55.808;37.078;2022-12-24T00:02:39;14.02;;;9.45;;
70213;SDS011;60138;55.808;37.078;2022-12-24T00:05:05;12.73;;;9.50;;
70213;SDS011;60138;55.808;37.078;2022-12-24T00:07:31;13.35;;;9.68;;
70213;SDS011;60138;55.808;37.078;2022-12-24T00:09:56;12.40;;;8.63;;
70213;SDS011;60138;55.808;37.078;2022-12-24T00:12:23;12.83;;;9.70;;
70213;SDS011;60138;55.808;37.078;2022-12-24T00:14:49;14.18;;;9.32;;
70213;SDS011;60138;55.808;37.078;2022-12-24T00:17:15;13.80;;;8.88;;
70213;SDS011;60138;55.808;37.078;2022-12-24T00:19:40;11.27;;;8.87;;
70213;SDS011;60138;55.808;37.078;2022-12-24T00:22:06;12.20;;;8.63;;
70213;SDS011;60138;55.808;37.078;2022-12-24T00:24:32;9.13;;;6.60;;
70213;SDS011;60138;55.808;37.078;2022-12-24T00:26:57;12.77;;;9.23;;
70213;SDS011;60138;55.808;37.078;2022-12-24T00:29:23;13.87;;;9.17;;
70213;SDS011;60138;55.808;37.078;2022-12-24T00:31:49;11.97;;;8.60;;
70213;SDS011;60138;55.808;37.078;2022-12-24T00:34:14;14.88;;;10.15;;
70213;SDS011;60138;55.808;37.078;2022-12-24T00:36:40;14.50;;;10.23;;
70213;SDS011;60138;55.808;37.078;2022-12-24T00:39:06;14.23;;;9.93;;
70213;SDS011;60138;55.808;37.078;2022-12-24T00:41:31;14.50;;;9.27;;
70213;SDS011;60138;55.808;37.078;2022-12-24T00:44:01;15.20;;;10.25;;
70213;SDS011;60138;55.808;37.078;2022-12-24T00:46:29;18.17;;;10.30;;
70213;SDS011;60138;55.808;37.078;2022-12-24T00:48:57;16.05;;;9.77;;
70213;SDS011;60138;55.808;37.078;2022-12-24T00:51:23;18.88;;;11.05;;
70213;SDS011;60138;55.808;37.078;2022-12-24T00:53:49;18.17;;;10.63;;
70213;SDS011;60138;55.808;37.078;2022-12-24T00:56:15;17.63;;;11.57;;
70213;SDS011;60138;55.808;37.078;2022-12-24T00:58:41;18.13;;;11.05;;
70213;SDS011;60138;55.808;37.078;2022-12-24T01:01:06;18.00;;;11.17;;
70213;SDS011;60138;55.808;37.078;2022-12-24T01:03:32;17.98;;;11.35;;
70213;SDS011;60138;55.808;37.078;2022-12-24T01:05:58;21.23;;;12.90;;
70213;SDS011;60138;55.808;37.078;2022-12-24T01:08:24;23.35;;;12.82;;
70213;SDS011;60138;55.808;37.078;2022-12-24T01:10:50;20.27;;;11.83;;
70213;SDS011;60138;55.808;37.078;2022-12-24T01:13:15;17.80;;;11.32;;
70213;SDS011;60138;55.808;37.078;2022-12-24T01:15:41;22.93;;;12.10;;
70213;SDS011;60138;55.808;37.078;2022-12-24T01:18:06;19.42;;;11.27;;
70213;SDS011;60138;55.808;37.078;2022-12-24T01:20:32;20.53;;;11.83;;
70213;SDS011;60138;55.808;37.078;2022-12-24T01:22:57;22.03;;;11.83;;
70213;SDS011;60138;55.808;37.078;2022-12-24T01:25:23;20.55;;;12.02;;
70213;SDS011;60138;55.808;37.078;2022-12-24T01:27:49;24.52;;;12.57;;
70213;SDS011;60138;55.808;37.078;2022-12-24T01:30:14;23.50;;;13.53;;
70213;SDS011;60138;55.808;37.078;2022-12-24T01:32:40;24.27;;;13.50;;
70213;SDS011;60138;55.808;37.078;2022-12-24T01:35:06;27.03;;;12.93;;
70213;SDS011;60138;55.808;37.078;2022-12-24T01:37:32;21.73;;;11.98;;
70213;SDS011;60138;55.808;37.078;2022-12-24T01:39:58;25.70;;;13.48;;
70213;SDS011;60138;55.808;37.078;2022-12-24T01:42:23;22.50;;;13.03;;
70213;SDS011;60138;55.808;37.078;2022-12-24T01:44:49;24.50;;;13.60;;
70213;SDS011;60138;55.808;37.078;2022-12-24T01:49:57;26.92;;;14.93;;
70213;SDS011;60138;55.808;37.078;2022-12-24T01:52:30;27.38;;;14.15;;
70213;SDS011;60138;55.808;37.078;2022-12-24T01:55:00;26.58;;;15.35;;
70213;SDS011;60138;55.808;37.078;2022-12-24T01:57:54;25.30;;;14.23;;
70213;SDS011;60138;55.808;37.078;2022-12-24T02:00:23;22.60;;;13.32;;
70213;SDS011;60138;55.808;37.078;2022-12-24T02:02:49;27.02;;;13.80;;
70213;SDS011;60138;55.808;37.078;2022-12-24T02:05:39;22.60;;;13.17;;
70213;SDS011;60138;55.808;37.078;2022-12-24T02:08:10;27.58;;;14.25;;
70213;SDS011;60138;55.808;37.078;2022-12-24T02:10:36;24.38;;;13.00;;
70213;SDS011;60138;55.808;37.078;2022-12-24T02:13:02;26.60;;;13.17;;
70213;SDS011;60138;55.808;37.078;2022-12-24T02:31:57;24.30;;;13.82;;
70213;SDS011;60138;55.808;37.078;2022-12-24T02:34:29;25.58;;;12.55;;
70213;SDS011;60138;55.808;37.078;2022-12-24T02:37:05;24.60;;;12.07;;
70213;SDS011;60138;55.808;37.078;2022-12-24T02:39:39;23.33;;;12.20;;
70213;SDS011;60138;55.808;37.078;2022-12-24T02:42:11;20.80;;;13.07;;
70213;SDS011;60138;55.808;37.078;2022-12-24T02:44:41;22.30;;;12.10;;
70213;SDS011;60138;55.808;37.078;2022-12-24T02:47:08;23.13;;;12.98;;
70213;SDS011;60138;55.808;37.078;2022-12-24T02:49:35;22.40;;;12.35;;
70213;SDS011;60138;55.808;37.078;2022-12-24T02:52:02;25.40;;;13.07;;
70213;SDS011;60138;55.808;37.078;2022-12-24T02:54:28;24.58;;;13.15;;
70213;SDS011;60138;55.808;37.078;2022-12-24T02:57:05;24.50;;;12.60;;
70213;SDS011;60138;55.808;37.078;2022-12-24T03:05:12;22.70;;;12.10;;
70213;SDS011;60138;55.808;37.078;2022-12-24T03:13:11;25.17;;;12.82;;
70213;SDS011;60138;55.808;37.078;2022-12-24T03:15:40;26.87;;;12.27;;
70213;SDS011;60138;55.808;37.078;2022-12-24T03:18:07;25.55;;;14.05;;
70213;SDS011;60138;55.808;37.078;2022-12-24T03:20:36;23.85;;;12.68;;
70213;SDS011;60138;55.808;37.078;2022-12-24T03:23:04;24.52;;;13.07;;
70213;SDS011;60138;55.808;37.078;2022-12-24T03:25:31;26.70;;;13.93;;
70213;SDS011;60138;55.808;37.078;2022-12-24T03:27:59;21.43;;;12.13;;
70213;SDS011;60138;55.808;37.078;2022-12-24T03:30:27;24.02;;;11.98;;
70213;SDS011;60138;55.808;37.078;2022-12-24T03:32:53;24.38;;;12.95;;
70213;SDS011;60138;55.808;37.078;2022-12-24T03:35:18;23.17;;;12.57;;
70213;SDS011;60138;55.808;37.078;2022-12-24T03:37:44;25.00;;;13.20;;
70213;SDS011;60138;55.808;37.078;2022-12-24T03:40:10;23.35;;;12.55;;
70213;SDS011;60138;55.808;37.078;2022-12-24T03:42:36;26.20;;;13.60;;
70213;SDS011;60138;55.808;37.078;2022-12-24T03:45:02;27.10;;;14.07;;
70213;SDS011;60138;55.808;37.078;2022-12-24T03:47:29;28.33;;;15.35;;
70213;SDS011;60138;55.808;37.078;2022-12-24T03:49:55;29.42;;;14.93;;
70213;SDS011;60138;55.808;37.078;2022-12-24T03:52:39;31.03;;;15.93;;
70213;SDS011;60138;55.808;37.078;2022-12-24T03:55:05;24.23;;;14.48;;
70213;SDS011;60138;55.808;37.078;2022-12-24T03:57:31;26.67;;;14.85;;
70213;SDS011;60138;55.808;37.078;2022-12-24T03:59:56;27.37;;;14.80;;
70213;SDS011;60138;55.808;37.078;2022-12-24T04:02:22;29.03;;;15.30;;
70213;SDS011;60138;55.808;37.078;2022-12-24T04:04:48;31.35;;;15.15;;
70213;SDS011;60138;55.808;37.078;2022-12-24T04:07:13;25.43;;;14.43;;
70213;SDS011;60138;55.808;37.078;2022-12-24T04:09:39;30.15;;;15.52;;
70213;SDS011;60138;55.808;37.078;2022-12-24T04:12:05;28.00;;;14.50;;
70213;SDS011;60138;55.808;37.078;2022-12-24T04:14:31;32.33;;;15.70;;
70213;SDS011;60138;55.808;37.078;2022-12-24T04:16:57;26.50;;;14.57;;
70213;SDS011;60138;55.808;37.078;2022-12-24T04:19:23;27.40;;;14.50;;
70213;SDS011;60138;55.808;37.078;2022-12-24T04:21:48;27.53;;;14.70;;
70213;SDS011;60138;55.808;37.078;2022-12-24T04:24:14;24.73;;;14.48;;
70213;SDS011;60138;55.808;37.078;2022-12-24T04:26:39;25.20;;;13.43;;
70213;SDS011;60138;55.808;37.078;2022-12-24T04:29:05;27.33;;;14.68;;
70213;SDS011;60138;55.808;37.078;2022-12-24T04:31:31;25.55;;;14.50;;
70213;SDS011;60138;55.808;37.078;2022-12-24T04:33:56;25.93;;;15.07;;
70213;SDS011;60138;55.808;37.078;2022-12-24T04:36:22;28.17;;;14.63;;
70213;SDS011;60138;55.808;37.078;2022-12-24T04:38:48;32.20;;;15.70;;
70213;SDS011;60138;55.808;37.078;2022-12-24T04:41:15;24.00;;;15.40;;
70213;SDS011;60138;55.808;37.078;2022-12-24T04:43:43;26.80;;;14.40;;
70213;SDS011;60138;55.808;37.078;2022-12-24T04:46:10;29.00;;;15.00;;
70213;SDS011;60138;55.808;37.078;2022-12-24T04:48:40;29.15;;;14.55;;
70213;SDS011;60138;55.808;37.078;2022-12-24T04:51:06;26.40;;;15.33;;
70213;SDS011;60138;55.808;37.078;2022-12-24T04:53:33;27.65;;;15.13;;
70213;SDS011;60138;55.808;37.078;2022-12-24T04:56:00;27.50;;;15.63;;
70213;SDS011;60138;55.808;37.078;2022-12-24T04:58:26;27.33;;;13.82;;
70213;SDS011;60138;55.808;37.078;2022-12-24T05:00:52;28.48;;;14.90;;
70213;SDS011;60138;55.808;37.078;2022-12-24T05:03:18;27.87;;;14.70;;
70213;SDS011;60138;55.808;37.078;2022-12-24T05:05:44;26.52;;;14.65;;
70213;SDS011;60138;55.808;37.078;2022-12-24T05:08:28;25.20;;;14.20;;
70213;SDS011;60138;55.808;37.078;2022-12-24T05:10:57;24.93;;;14.83;;
70213;SDS011;60138;55.808;37.078;2022-12-24T05:13:24;29.58;;;14.98;;
70213;SDS011;60138;55.808;37.078;2022-12-24T05:15:50;25.50;;;13.95;;
70213;SDS011;60138;55.808;37.078;2022-12-24T05:18:16;27.60;;;14.90;;
70213;SDS011;60138;55.808;37.078;2022-12-24T05:20:42;25.50;;;13.75;;
70213;SDS011;60138;55.808;37.078;2022-12-24T05:23:08;24.58;;;13.43;;
70213;SDS011;60138;55.808;37.078;2022-12-24T05:25:53;27.37;;;13.60;;
70213;SDS011;60138;55.808;37.078;2022-12-24T05:28:19;23.58;;;12.18;;
70213;SDS011;60138;55.808;37.078;2022-12-24T05:30:44;23.13;;;13.27;;
70213;SDS011;60138;55.808;37.078;2022-12-24T05:33:10;22.35;;;12.38;;
70213;SDS011;60138;55.808;37.078;2022-12-24T05:35:36;22.73;;;13.13;;
70213;SDS011;60138;55.808;37.078;2022-12-24T05:41:05;20.92;;;12.65;;
70213;SDS011;60138;55.808;37.078;2022-12-24T05:43:31;23.07;;;13.57;;
70213;SDS011;60138;55.808;37.078;2022-12-24T05:46:00;23.95;;;14.30;;
70213;SDS011;60138;55.808;37.078;2022-12-24T05:48:27;24.92;;;12.90;;
70213;SDS011;60138;55.808;37.078;2022-12-24T05:50:53;21.93;;;12.97;;
70213;SDS011;60138;55.808;37.078;2022-12-24T05:56:09;26.25;;;14.48;;
70213;SDS011;60138;55.808;37.078;2022-12-24T05:58:40;28.60;;;14.60;;
70213;SDS011;60138;55.808;37.078;2022-12-24T06:01:06;25.25;;;14.07;;
70213;SDS011;60138;55.808;37.078;2022-12-24T06:03:33;26.77;;;14.18;;
70213;SDS011;60138;55.808;37.078;2022-12-24T06:06:04;26.85;;;13.95;;
70213;SDS011;60138;55.808;37.078;2022-12-24T06:08:32;34.00;;;15.13;;
70213;SDS011;60138;55.808;37.078;2022-12-24T06:10:59;33.50;;;14.43;;
70213;SDS011;60138;55.808;37.078;2022-12-24T06:13:26;26.42;;;15.30;;
70213;SDS011;60138;55.808;37.078;2022-12-24T06:16:12;26.92;;;13.68;;
70213;SDS011;60138;55.808;37.078;2022-12-24T06:18:39;29.30;;;14.20;;
70213;SDS011;60138;55.808;37.078;2022-12-24T06:21:06;28.30;;;14.07;;
70213;SDS011;60138;55.808;37.078;2022-12-24T06:23:32;27.13;;;15.43;;
70213;SDS011;60138;55.808;37.078;2022-12-24T06:26:00;27.00;;;15.13;;
70213;SDS011;60138;55.808;37.078;2022-12-24T06:28:45;27.63;;;13.93;;
70213;SDS011;60138;55.808;37.078;2022-12-24T06:31:12;27.80;;;14.40;;
70213;SDS011;60138;55.808;37.078;2022-12-24T06:33:40;25.17;;;13.30;;
70213;SDS011;60138;55.808;37.078;2022-12-24T06:36:10;26.20;;;13.87;;
70213;SDS011;60138;55.808;37.078;2022-12-24T06:38:39;25.25;;;14.07;;
70213;SDS011;60138;55.808;37.078;2022-12-24T06:41:05;24.63;;;13.33;;
70213;SDS011;60138;55.808;37.078;2022-12-24T06:43:32;23.75;;;12.90;;
70213;SDS011;60138;55.808;37.078;2022-12-24T06:48:43;19.85;;;12.43;;
70213;SDS011;60138;55.808;37.078;2022-12-24T06:51:09;19.00;;;12.37;;
70213;SDS011;60138;55.808;37.078;2022-12-24T06:53:36;20.80;;;11.90;;
70213;SDS011;60138;55.808;37.078;2022-12-24T06:56:06;22.00;;;12.60;;
70213;SDS011;60138;55.808;37.078;2022-12-24T06:58:51;20.13;;;11.85;;
70213;SDS011;60138;55.808;37.078;2022-12-24T07:01:18;18.67;;;11.50;;
70213;SDS011;60138;55.808;37.078;2022-12-24T07:03:45;20.55;;;11.60;;
70213;SDS011;60138;55.808;37.078;2022-12-24T07:06:15;20.67;;;11.73;;
70213;SDS011;60138;55.808;37.078;2022-12-24T07:08:44;17.55;;;11.73;;
70213;SDS011;60138;55.808;37.078;2022-12-24T07:11:10;17.75;;;10.98;;
70213;SDS011;60138;55.808;37.078;2022-12-24T07:13:35;16.90;;;9.97;;
70213;SDS011;60138;55.808;37.078;2022-12-24T07:16:02;17.38;;;11.68;;
70213;SDS011;60138;55.808;37.078;2022-12-24T07:19:05;18.42;;;10.98;;
70213;SDS011;60138;55.808;37.078;2022-12-24T07:21:31;16.73;;;10.63;;
70213;SDS011;60138;55.808;37.078;2022-12-24T07:23:56;17.17;;;10.43;;
70213;SDS011;60138;55.808;37.078;2022-12-24T07:26:23;16.02;;;10.27;;
70213;SDS011;60138;55.808;37.078;2022-12-24T07:28:49;14.50;;;10.03;;
70213;SDS011;60138;55.808;37.078;2022-12-24T07:31:15;16.52;;;10.70;;
70213;SDS011;60138;55.808;37.078;2022-12-24T07:33:40;16.50;;;10.20;;
70213;SDS011;60138;55.808;37.078;2022-12-24T07:36:07;14.77;;;10.10;;
70213;SDS011;60138;55.808;37.078;2022-12-24T07:38:37;13.90;;;9.70;;
70213;SDS011;60138;55.808;37.078;2022-12-24T07:41:03;15.80;;;10.35;;
70213;SDS011;60138;55.808;37.078;2022-12-24T07:43:29;16.77;;;10.23;;
70213;SDS011;60138;55.808;37.078;2022-12-24T07:45:57;13.85;;;9.43;;
70213;SDS011;60138;55.808;37.078;2022-12-24T07:48:24;14.55;;;9.82;;
70213;SDS011;60138;55.808;37.078;2022-12-24T07:50:50;14.03;;;9.80;;
70213;SDS011;60138;55.808;37.078;2022-12-24T07:53:17;13.25;;;9.30;;
70213;SDS011;60138;55.808;37.078;2022-12-24T07:55:43;14.27;;;9.43;;
70213;SDS011;60138;55.808;37.078;2022-12-24T07:58:09;14.55;;;8.68;;
70213;SDS011;60138;55.808;37.078;2022-12-24T08:00:35;10.87;;;7.67;;
70213;SDS011;60138;55.808;37.078;2022-12-24T08:03:01;14.02;;;9.40;;
70213;SDS011;60138;55.808;37.078;2022-12-24T08:05:26;13.25;;;8.52;;
70213;SDS011;60138;55.808;37.078;2022-12-24T08:07:52;15.37;;;9.63;;
70213;SDS011;60138;55.808;37.078;2022-12-24T08:10:18;11.85;;;9.15;;
70213;SDS011;60138;55.808;37.078;2022-12-24T08:12:44;11.85;;;8.50;;
70213;SDS011;60138;55.808;37.078;2022-12-24T08:15:10;12.40;;;8.27;;
70213;SDS011;60138;55.808;37.078;2022-12-24T08:17:36;12.83;;;8.90;;
70213;SDS011;60138;55.808;37.078;2022-12-24T08:20:02;13.90;;;9.00;;
70213;SDS011;60138;55.808;37.078;2022-12-24T08:22:29;11.50;;;8.65;;
70213;SDS011;60138;55.808;37.078;2022-12-24T08:24:54;12.73;;;9.40;;
70213;SDS011;60138;55.808;37.078;2022-12-24T08:27:20;11.73;;;7.95;;
70213;SDS011;60138;55.808;37.078;2022-12-24T08:29:46;10.90;;;7.93;;
70213;SDS011;60138;55.808;37.078;2022-12-24T08:32:11;12.40;;;8.52;;
70213;SDS011;60138;55.808;37.078;2022-12-24T08:34:37;13.97;;;9.13;;
70213;SDS011;60138;55.808;37.078;2022-12-24T08:37:03;10.93;;;8.40;;
70213;SDS011;60138;55.808;37.078;2022-12-24T08:39:28;10.30;;;8.13;;
70213;SDS011;60138;55.808;37.078;2022-12-24T08:41:54;11.90;;;7.90;;
70213;SDS011;60138;55.808;37.078;2022-12-24T08:44:20;11.60;;;8.57;;
70213;SDS011;60138;55.808;37.078;2022-12-24T08:46:45;12.20;;;8.03;;
70213;SDS011;60138;55.808;37.078;2022-12-24T08:49:11;11.80;;;8.30;;
70213;SDS011;60138;55.808;37.078;2022-12-24T08:51:37;11.00;;;8.07;;
70213;SDS011;60138;55.808;37.078;2022-12-24T08:54:02;10.37;;;7.90;;
70213;SDS011;60138;55.808;37.078;2022-12-24T08:56:28;12.38;;;8.18;;
70213;SDS011;60138;55.808;37.078;2022-12-24T08:58:54;11.67;;;7.73;;
70213;SDS011;60138;55.808;37.078;2022-12-24T09:01:19;12.63;;;8.65;;
70213;SDS011;60138;55.808;37.078;2022-12-24T09:03:45;11.20;;;8.03;;
70213;SDS011;60138;55.808;37.078;2022-12-24T09:06:12;13.02;;;7.65;;
70213;SDS011;60138;55.808;37.078;2022-12-24T09:08:38;14.40;;;8.10;;
70213;SDS011;60138;55.808;37.078;2022-12-24T09:11:08;12.32;;;9.30;;
70213;SDS011;60138;55.808;37.078;2022-12-24T09:13:36;12.68;;;8.75;;
70213;SDS011;60138;55.808;37.078;2022-12-24T09:16:02;10.63;;;7.50;;
70213;SDS011;60138;55.808;37.078;2022-12-24T09:18:29;12.57;;;8.65;;
70213;SDS011;60138;55.808;37.078;2022-12-24T09:20:58;13.95;;;9.05;;
70213;SDS011;60138;55.808;37.078;2022-12-24T09:23:25;11.47;;;7.67;;
70213;SDS011;60138;55.808;37.078;2022-12-24T09:25:51;11.52;;;7.63;;
70213;SDS011;60138;55.808;37.078;2022-12-24T09:28:16;12.50;;;9.38;;
70213;SDS011;60138;55.808;37.078;2022-12-24T09:31:01;11.77;;;7.60;;
70213;SDS011;60138;55.808;37.078;2022-12-24T09:33:29;12.13;;;8.63;;
70213;SDS011;60138;55.808;37.078;2022-12-24T09:35:56;12.65;;;8.57;;
70213;SDS011;60138;55.808;37.078;2022-12-24T09:38:23;12.52;;;7.82;;
70213;SDS011;60138;55.808;37.078;2022-12-24T09:40:49;12.05;;;7.13;;
70213;SDS011;60138;55.808;37.078;2022-12-24T09:43:19;11.90;;;8.32;;
70213;SDS011;60138;55.808;37.078;2022-12-24T09:48:42;12.43;;;7.13;;
70213;SDS011;60138;55.808;37.078;2022-12-24T09:51:11;11.53;;;7.30;;
70213;SDS011;60138;55.808;37.078;2022-12-24T09:53:51;11.32;;;8.63;;
70213;SDS011;60138;55.808;37.078;2022-12-24T09:56:34;11.32;;;8.15;;
70213;SDS011;60138;55.808;37.078;2022-12-24T09:59:05;10.32;;;8.13;;
70213;SDS011;60138;55.808;37.078;2022-12-24T10:01:35;10.48;;;8.07;;
70213;SDS011;60138;55.808;37.078;2022-12-24T10:11:46;10.37;;;7.43;;
70213;SDS011;60138;55.808;37.078;2022-12-24T10:18:09;11.45;;;6.50;;
70213;SDS011;60138;55.808;37.078;2022-12-24T10:20:44;8.52;;;6.38;;
70213;SDS011;60138;55.808;37.078;2022-12-24T10:23:20;8.27;;;6.27;;
70213;SDS011;60138;55.808;37.078;2022-12-24T10:26:19;9.00;;;7.03;;
70213;SDS011;60138;55.808;37.078;2022-12-24T10:29:26;8.70;;;5.88;;
70213;SDS011;60138;55.808;37.078;2022-12-24T10:34:37;8.02;;;6.88;;
70213;SDS011;60138;55.808;37.078;2022-12-24T10:37:26;8.07;;;5.77;;
70213;SDS011;60138;55.808;37.078;2022-12-24T10:39:53;8.25;;;6.05;;
70213;SDS011;60138;55.808;37.078;2022-12-24T10:42:20;7.53;;;5.22;;
70213;SDS011;60138;55.808;37.078;2022-12-24T10:44:51;8.57;;;5.82;;
70213;SDS011;60138;55.808;37.078;2022-12-24T10:47:21;8.80;;;5.80;;
70213;SDS011;60138;55.808;37.078;2022-12-24T10:49:53;9.03;;;6.90;;
70213;SDS011;60138;55.808;37.078;2022-12-24T10:52:26;7.78;;;5.43;;
70213;SDS011;60138;55.808;37.078;2022-12-24T10:57:42;8.32;;;6.30;;
70213;SDS011;60138;55.808;37.078;2022-12-24T11:00:20;8.02;;;6.03;;
70213;SDS011;60138;55.808;37.078;2022-12-24T11:02:48;7.80;;;4.90;;
70213;SDS011;60138;55.808;37.078;2022-12-24T11:05:30;6.82;;;5.60;;
70213;SDS011;60138;55.808;37.078;2022-12-24T11:07:58;7.57;;;5.45;;
70213;SDS011;60138;55.808;37.078;2022-12-24T11:10:28;8.48;;;5.38;;
70213;SDS011;60138;55.808;37.078;2022-12-24T11:12:55;9.38;;;6.07;;
70213;SDS011;60138;55.808;37.078;2022-12-24T11:15:26;7.27;;;5.23;;
70213;SDS011;60138;55.808;37.078;2022-12-24T11:17:57;6.65;;;5.70;;
70213;SDS011;60138;55.808;37.078;2022-12-24T11:20:28;7.78;;;6.45;;
70213;SDS011;60138;55.808;37.078;2022-12-24T11:22:56;7.68;;;5.85;;
70213;SDS011;60138;55.808;37.078;2022-12-24T11:27:49;6.67;;;5.37;;
70213;SDS011;60138;55.808;37.078;2022-12-24T11:32:41;7.27;;;5.83;;
70213;SDS011;60138;55.808;37.078;2022-12-24T11:35:15;6.20;;;5.55;;
70213;SDS011;60138;55.808;37.078;2022-12-24T11:37:45;7.55;;;5.75;;
70213;SDS011;60138;55.808;37.078;2022-12-24T11:40:40;7.55;;;5.35;;
70213;SDS011;60138;55.808;37.078;2022-12-24T11:43:20;7.95;;;5.53;;
70213;SDS011;60138;55.808;37.078;2022-12-24T11:45:47;6.50;;;5.20;;
70213;SDS011;60138;55.808;37.078;2022-12-24T11:56:04;6.55;;;5.80;;
70213;SDS011;60138;55.808;37.078;2022-12-24T12:03:42;7.18;;;5.57;;
70213;SDS011;60138;55.808;37.078;2022-12-24T12:06:19;6.95;;;5.43;;
70213;SDS011;60138;55.808;37.078;2022-12-24T12:08:52;8.40;;;6.05;;
70213;SDS011;60138;55.808;37.078;2022-12-24T12:11:21;7.87;;;5.13;;
70213;SDS011;60138;55.808;37.078;2022-12-24T12:13:49;8.68;;;5.03;;
70213;SDS011;60138;55.808;37.078;2022-12-24T12:19:13;7.90;;;5.68;;
70213;SDS011;60138;55.808;37.078;2022-12-24T12:21:40;8.77;;;6.13;;
70213;SDS011;60138;55.808;37.078;2022-12-24T12:24:13;8.60;;;5.90;;
70213;SDS011;60138;55.808;37.078;2022-12-24T12:26:46;8.23;;;6.05;;
70213;SDS011;60138;55.808;37.078;2022-12-24T12:29:53;8.73;;;6.28;;
70213;SDS011;60138;55.808;37.078;2022-12-24T12:32:24;8.00;;;5.75;;
70213;SDS011;60138;55.808;37.078;2022-12-24T12:34:57;8.48;;;5.97;;
70213;SDS011;60138;55.808;37.078;2022-12-24T12:40:02;9.48;;;5.05;;
70213;SDS011;60138;55.808;37.078;2022-12-24T12:42:36;7.80;;;6.28;;
70213;SDS011;60138;55.808;37.078;2022-12-24T12:51:01;6.87;;;5.83;;
70213;SDS011;60138;55.808;37.078;2022-12-24T12:58:48;9.73;;;6.90;;
70213;SDS011;60138;55.808;37.078;2022-12-24T13:09:51;7.30;;;5.38;;
70213;SDS011;60138;55.808;37.078;2022-12-24T13:12:41;9.57;;;6.63;;
70213;SDS011;60138;55.808;37.078;2022-12-24T13:20:53;8.65;;;6.57;;
70213;SDS011;60138;55.808;37.078;2022-12-24T13:23:19;10.13;;;7.03;;
70213;SDS011;60138;55.808;37.078;2022-12-24T13:25:51;9.35;;;7.00;;
70213;SDS011;60138;55.808;37.078;2022-12-24T13:30:48;10.45;;;6.25;;
70213;SDS011;60138;55.808;37.078;2022-12-24T13:36:06;9.38;;;6.45;;
70213;SDS011;60138;55.808;37.078;2022-12-24T13:38:43;8.43;;;6.63;;
70213;SDS011;60138;55.808;37.078;2022-12-24T13:49:20;10.02;;;7.20;;
70213;SDS011;60138;55.808;37.078;2022-12-24T13:52:04;8.43;;;7.18;;
70213;SDS011;60138;55.808;37.078;2022-12-24T13:54:36;9.27;;;6.90;;
70213;SDS011;60138;55.808;37.078;2022-12-24T13:57:22;8.60;;;6.43;;
70213;SDS011;60138;55.808;37.078;2022-12-24T13:59:56;10.30;;;6.68;;
70213;SDS011;60138;55.808;37.078;2022-12-24T14:02:31;8.77;;;5.43;;
70213;SDS011;60138;55.808;37.078;2022-12-24T14:05:00;9.93;;;6.60;;
70213;SDS011;60138;55.808;37.078;2022-12-24T14:07:29;10.80;;;6.80;;
70213;SDS011;60138;55.808;37.078;2022-12-24T14:09:55;11.68;;;7.00;;
70213;SDS011;60138;55.808;37.078;2022-12-24T14:12:36;8.38;;;6.82;;
70213;SDS011;60138;55.808;37.078;2022-12-24T14:18:18;8.65;;;6.55;;
70213;SDS011;60138;55.808;37.078;2022-12-24T14:20:50;9.00;;;6.53;;
70213;SDS011;60138;55.808;37.078;2022-12-24T14:23:30;7.57;;;6.05;;
70213;SDS011;60138;55.808;37.078;2022-12-24T14:26:28;10.48;;;7.03;;
70213;SDS011;60138;55.808;37.078;2022-12-24T14:28:57;9.77;;;7.00;;
70213;SDS011;60138;55.808;37.078;2022-12-24T14:31:27;8.55;;;6.40;;
70213;SDS011;60138;55.808;37.078;2022-12-24T14:34:04;10.50;;;6.97;;
70213;SDS011;60138;55.808;37.078;2022-12-24T14:36:31;16.13;;;8.82;;
70213;SDS011;60138;55.808;37.078;2022-12-24T14:38:57;14.88;;;8.73;;
70213;SDS011;60138;55.808;37.078;2022-12-24T14:41:46;28.70;;;15.60;;
70213;SDS011;60138;55.808;37.078;2022-12-24T14:47:15;12.63;;;8.13;;
70213;SDS011;60138;55.808;37.078;2022-12-24T14:53:17;14.50;;;8.85;;
70213;SDS011;60138;55.808;37.078;2022-12-24T14:55:50;17.67;;;11.67;;
70213;SDS011;60138;55.808;37.078;2022-12-24T14:58:27;18.52;;;11.25;;
70213;SDS011;60138;55.808;37.078;2022-12-24T15:00:58;17.08;;;9.77;;
70213;SDS011;60138;55.808;37.078;2022-12-24T15:03:27;12.95;;;9.07;;
70213;SDS011;60138;55.808;37.078;2022-12-24T15:05:58;15.40;;;9.67;;
70213;SDS011;60138;55.808;37.078;2022-12-24T15:08:28;12.93;;;8.25;;
70213;SDS011;60138;55.808;37.078;2022-12-24T15:10:58;11.38;;;8.52;;
70213;SDS011;60138;55.808;37.078;2022-12-24T15:13:36;16.30;;;8.32;;
70213;SDS011;60138;55.808;37.078;2022-12-24T15:16:06;11.80;;;9.18;;
70213;SDS011;60138;55.808;37.078;2022-12-24T15:18:35;13.03;;;9.53;;
70213;SDS011;60138;55.808;37.078;2022-12-24T15:21:17;12.98;;;8.85;;
70213;SDS011;60138;55.808;37.078;2022-12-24T15:23:48;10.73;;;8.30;;
70213;SDS011;60138;55.808;37.078;2022-12-24T15:26:28;14.13;;;8.57;;
70213;SDS011;60138;55.808;37.078;2022-12-24T15:28:59;14.35;;;9.32;;
70213;SDS011;60138;55.808;37.078;2022-12-24T15:31:26;12.00;;;8.17;;
70213;SDS011;60138;55.808;37.078;2022-12-24T15:33:54;14.48;;;9.32;;
70213;SDS011;60138;55.808;37.078;2022-12-24T15:36:39;10.75;;;8.50;;
70213;SDS011;60138;55.808;37.078;2022-12-24T15:39:12;15.70;;;10.27;;
70213;SDS011;60138;55.808;37.078;2022-12-24T15:41:41;14.45;;;8.68;;
70213;SDS011;60138;55.808;37.078;2022-12-24T15:44:11;14.73;;;8.63;;
70213;SDS011;60138;55.808;37.078;2022-12-24T15:46:39;12.63;;;8.00;;
70213;SDS011;60138;55.808;37.078;2022-12-24T15:49:05;11.40;;;8.18;;
70213;SDS011;60138;55.808;37.078;2022-12-24T15:51:40;13.77;;;8.23;;
70213;SDS011;60138;55.808;37.078;2022-12-24T15:54:09;13.98;;;10.35;;
70213;SDS011;60138;55.808;37.078;2022-12-24T15:56:41;14.00;;;9.43;;
70213;SDS011;60138;55.808;37.078;2022-12-24T15:59:28;15.00;;;9.70;;
70213;SDS011;60138;55.808;37.078;2022-12-24T16:02:34;15.77;;;8.98;;
70213;SDS011;60138;55.808;37.078;2022-12-24T16:05:17;11.45;;;8.07;;
70213;SDS011;60138;55.808;37.078;2022-12-24T16:10:47;13.20;;;9.27;;
70213;SDS011;60138;55.808;37.078;2022-12-24T16:13:40;13.07;;;9.07;;
70213;SDS011;60138;55.808;37.078;2022-12-24T16:16:11;25.30;;;11.20;;
70213;SDS011;60138;55.808;37.078;2022-12-24T16:21:08;7.22;;;5.45;;
70213;SDS011;60138;55.808;37.078;2022-12-24T16:23:38;8.00;;;5.57;;
70213;SDS011;60138;55.808;37.078;2022-12-24T16:26:11;10.75;;;7.45;;
70213;SDS011;60138;55.808;37.078;2022-12-24T16:28:37;13.15;;;6.40;;
70213;SDS011;60138;55.808;37.078;2022-12-24T16:31:02;11.47;;;7.10;;
70213;SDS011;60138;55.808;37.078;2022-12-24T16:33:28;9.52;;;6.65;;
70213;SDS011;60138;55.808;37.078;2022-12-24T16:35:54;12.37;;;7.43;;
70213;SDS011;60138;55.808;37.078;2022-12-24T16:38:20;10.35;;;7.50;;
70213;SDS011;60138;55.808;37.078;2022-12-24T16:40:46;12.20;;;8.85;;
70213;SDS011;60138;55.808;37.078;2022-12-24T16:43:12;13.65;;;7.45;;
70213;SDS011;60138;55.808;37.078;2022-12-24T16:45:38;10.47;;;7.00;;
70213;SDS011;60138;55.808;37.078;2022-12-24T16:48:04;9.18;;;6.50;;